Airfield :
LOGIN :

Register | Disclaimer

   EN    FR    IT 

 










Legend :    VFR   Marginal VFR   IFR   Intensive IFR   Very Intensive IFR
Visi :
Ceiling :
>= 8 km
>= 3000ft
5 to 8 km
1000 to 3000 ft
1500m to 5 km
500 to 1000 ft
800 to 1500m
200 to 500 ft
< 800m
< 200 ft
Symbols :   Thunderstorms  Fog  Heavy snow  Heavy precipitations  Wind > 20 kt
SIGMETs :     Misc.  Thunderstorms  Icing  Turbulence  Mountain Waves  Volcanic Ashes







- Airport Elevation : 659 ft
- IATA code : LGG


EBLG - Liège

CURRENT METAR :
  • 251150Z 32010G20KT 260V360 9999 -SHRA SCT030 BKN040 07/01 Q1010 TEMPO 4500 SHRA SHRAGS

EXPIRED METARs :
  • 251120Z 28010KT 240V310 9999 FEW032 BKN045 08/M01 Q1010 TEMPO 4500 SHRA SHRAGS
  • 251050Z 29012KT 240V320 9999 FEW032 BKN045 08/M00 Q1010 TEMPO 4500 SHRA SHRAGS
  • 251020Z 28011KT 250V340 9999 FEW032 BKN045 08/M01 Q1010 NOSIG
  • 250950Z 28012KT 240V310 9999 SCT030 07/M02 Q1010 NOSIG
  • 250920Z 29011KT 260V330 9999 FEW028 07/M01 Q1010 NOSIG

TAF TAF EBLG
Valid from the 25 at 12:00 until the 26 at 18:00 UTC


251110Z 2512/2618 29010KT 9999 SCT035 SCT045
PROB30
TEMPO 2512/2514 4000 SHRA BKN012CB
PROB30
TEMPO 2608/2612 4000 SHRA BKN014TCU
TEMPO 2513/2517 4000 SHRA SCT008 BKN014CB
PROB30
TEMPO 2612/2616 2500 TSRAGS
No reported NOTAMs for that airfield.



MET'MAP, your aeronautical weather chart ! - Copyright ORBIFLY December 2007 - Disclaimer

ORBIFLY MET'MAP TEAM :

Programming & Development : Alexandra Zaïnal
Concept & Development : Baudouin d'Aumeries
Co-Development & Prog : Marc-Olivier Méhu
Technical & hardware support : Manuel Goepfert

Contact : metmap@orbifly.com




SOURCES & CREDITS :

   NOAA